Tropical Cyclones
[Index]
Main Index Home Page Stock Weather Photos Extreme Storms Discussion Storm News and Storm Chasing Reports Tropical Cyclones / Hurricanes / Typhoons Weather Data and Links Wild Fires / Bushfires Weather Observation Techniques Weather Picture Catalogue Tornado Pictures and Reports Stock Video Footage and DVDs for sale
Season 1965-1966 Tropical Cyclone 196631 Track Map
Season 1965-1966 Summaries: [BoM-AU] [JTWC-AU] [JTWC-SIO] [JTWC-SPAC] [JTWC-SH]
<<- Previous TC | JTWC 1965-1966 Season | Next TC ->>

click for intensity scale information  Lat/long Grid: Show Hide

 Date Labels: Show Hide

Joint Typhoon Warning Centre Cyclone Data

Name: 196631
Number: 610 / 6631

14 Mar 1966 18:00 UTC to 29 Mar 1966 06:00 UTC

    date/time    lat    long     hPa   cat  kts
1966-03-14 18   11.0    98.0                              
1966-03-15 00   10.8    95.3                              
1966-03-15 06   10.6    93.0                              
1966-03-15 12   10.5    91.0                              
1966-03-15 18   10.4    89.0                              
1966-03-16 00   10.3    86.9                              
1966-03-16 06   10.2    85.1                              
1966-03-16 12   10.1    83.9                              
1966-03-16 18   10.1    83.0                              
1966-03-17 00   10.1    82.1                              
1966-03-17 06   10.1    81.0                              
1966-03-17 12   10.0    79.8                              
1966-03-17 18   10.0    78.5                              
1966-03-18 00   10.0    77.3                              
1966-03-18 06   10.1    76.0                              
1966-03-18 12   10.2    74.4                              
1966-03-18 18   10.3    72.7                              
1966-03-19 00   10.6    71.1                              
1966-03-19 06   11.0    69.6                              
1966-03-19 12   11.3    68.5                              
1966-03-19 18   11.6    67.5                              
1966-03-20 00   12.0    66.2                              
1966-03-20 06   12.5    65.0                              
1966-03-20 12   12.9    64.0                              
1966-03-20 18   13.3    63.0                              
1966-03-21 00   14.0    62.0                              
1966-03-21 06   14.5    61.2                              
1966-03-21 12   14.6    61.0                              
1966-03-21 18   14.7    60.9                              
1966-03-22 00   14.8    60.7                              
1966-03-22 06   15.0    60.5                              
1966-03-22 12   15.3    60.3                              
1966-03-22 18   15.7    60.1                              
1966-03-23 00   16.1    59.9                              
1966-03-23 06   16.5    59.7                              
1966-03-23 12   17.4    59.6                              
1966-03-23 18   18.5    59.5                              
1966-03-24 00   19.3    59.4                              
1966-03-24 06   20.1    59.3                              
1966-03-24 12   21.2    59.0                              
1966-03-24 18   22.3    58.6                              
1966-03-25 00   23.2    58.2                              
1966-03-25 06   24.0    57.7                              
1966-03-25 12   25.0    56.8                              
1966-03-25 18   26.0    55.6                              
1966-03-26 00   26.7    54.2                              
1966-03-26 06   27.3    52.9                              
1966-03-26 12   27.7    51.9                              
1966-03-26 18   28.2    51.2                              
1966-03-27 00   29.0    50.6                              
1966-03-27 06   30.0    50.2                              
1966-03-27 12   31.0    50.1                              
1966-03-27 18   32.0    50.3                              
1966-03-28 00   32.9    50.6                              
1966-03-28 06   33.9    51.0                              
1966-03-28 12   35.0    51.6                              
1966-03-28 18   36.2    52.2                              
1966-03-29 00   37.2    52.8                              
1966-03-29 06   38.2    53.4                              
Winds are 1-min average.

Tropical cyclone tracks developed by Michael Bath using data from the Joint Typhoon Warning Centre Best Tracks and Google Maps.


[Australian Severe Weather index] [Copyright Notice] [Email Contacts] [Search This Site] [Privacy Policy]
Document: tropical_cyclone_196631.htm Updated: 18 September 2016